createdAt,value
2019-03-12T00:01:26.705Z,42.18
2019-03-12T00:03:58.544Z,42.41
2019-03-12T00:06:48.967Z,42.38
2019-03-12T00:09:39.782Z,42.90
2019-03-12T00:12:12.184Z,42.83
2019-03-12T00:14:43.930Z,42.72
2019-03-12T00:17:15.575Z,43.23
2019-03-12T00:20:06.278Z,43.45
2019-03-12T00:22:37.041Z,43.54
2019-03-12T00:25:08.751Z,43.36
2019-03-12T00:27:59.174Z,43.40
2019-03-12T00:31:02.941Z,43.42
2019-03-12T00:33:24.147Z,43.21
2019-03-12T00:35:59.545Z,43.02
2019-03-12T00:38:31.053Z,43.04
2019-03-12T00:41:05.481Z,42.71
2019-03-12T00:43:56.168Z,42.59
2019-03-12T00:46:27.713Z,42.39
2019-03-12T00:49:17.184Z,43.11
2019-03-12T00:52:07.119Z,43.80
2019-03-12T00:54:57.785Z,44.03
2019-03-12T00:57:29.408Z,43.95
2019-03-12T01:00:24.354Z,43.50
2019-03-12T01:02:56.065Z,42.95
2019-03-12T01:05:45.746Z,42.39
2019-03-12T01:08:30.163Z,41.97
2019-03-12T01:11:20.715Z,41.73
2019-03-12T01:13:51.460Z,41.24
2019-03-12T01:16:23.012Z,40.54
2019-03-12T01:19:13.782Z,40.69
2019-03-12T01:21:45.416Z,41.14
2019-03-12T01:24:17.145Z,41.58
2019-03-12T01:27:07.870Z,41.98
2019-03-12T01:29:39.653Z,42.75
2019-03-12T01:32:29.476Z,43.18
2019-03-12T01:35:01.180Z,43.17
2019-03-12T01:37:50.687Z,42.83
2019-03-12T01:40:40.552Z,42.98
2019-03-12T01:43:26.499Z,42.95
2019-03-12T01:46:04.577Z,42.57
2019-03-12T01:51:37.810Z,41.73
2019-03-12T01:54:08.484Z,40.68
2019-03-12T01:56:39.175Z,40.87
2019-03-12T01:59:10.850Z,41.12
2019-03-12T02:02:01.694Z,41.59
2019-03-12T02:04:32.582Z,41.62
2019-03-12T02:07:06.452Z,42.20
2019-03-12T02:09:37.418Z,42.29
2019-03-12T02:15:30.787Z,42.17
2019-03-12T02:18:21.012Z,42.22
2019-03-12T02:23:56.564Z,41.71
2019-03-12T02:26:27.246Z,41.89
2019-03-12T02:29:16.994Z,42.64
2019-03-12T02:35:08.447Z,44.50
2019-03-12T02:37:59.160Z,44.76
2019-03-12T02:40:29.897Z,44.80
2019-03-12T02:43:02.730Z,44.79
2019-03-12T02:45:53.510Z,44.54
2019-03-12T02:48:24.383Z,43.73
2019-03-12T02:51:14.048Z,43.67
2019-03-12T02:54:03.925Z,43.67
2019-03-12T02:56:36.619Z,43.84
2019-03-12T02:59:07.375Z,44.25
2019-03-12T03:01:57.998Z,44.74
2019-03-12T03:04:47.584Z,45.14
2019-03-12T03:07:56.174Z,45.42
2019-03-12T03:10:27.152Z,45.68
2019-03-12T03:13:16.875Z,45.88
2019-03-12T03:15:47.933Z,45.73
2019-03-12T03:18:19.814Z,45.29
2019-03-12T03:20:50.808Z,45.44
2019-03-12T03:23:23.597Z,46.11
2019-03-12T03:26:13.046Z,46.75
2019-03-12T03:29:03.996Z,47.09
2019-03-12T03:31:34.616Z,47.09
2019-03-12T03:34:06.235Z,46.88
2019-03-12T03:36:57.031Z,46.88
2019-03-12T03:39:27.939Z,46.70
2019-03-12T03:41:58.776Z,46.79
2019-03-12T03:44:50.676Z,46.52
2019-03-12T03:55:49.702Z,46.03
2019-03-12T03:58:20.710Z,45.54
2019-03-12T04:01:10.661Z,45.52
2019-03-12T04:03:41.532Z,45.69
2019-03-12T04:09:14.590Z,46.50
2019-03-12T04:11:46.203Z,46.79
2019-03-12T04:22:52.565Z,45.49
2019-03-12T04:31:25.312Z,45.60
2019-03-12T04:34:16.031Z,46.29
2019-03-12T04:37:06.796Z,46.93
2019-03-12T04:39:37.514Z,47.37
2019-03-12T04:42:09.177Z,47.03
2019-03-12T04:45:00.038Z,46.93
2019-03-12T04:50:53.656Z,46.71
2019-03-12T04:53:24.619Z,46.63
2019-03-12T04:55:55.403Z,46.60
2019-03-12T05:01:30.102Z,47.15
2019-03-12T05:04:00.200Z,47.15
2019-03-12T05:09:32.180Z,45.36
2019-03-12T05:12:02.895Z,45.70
2019-03-12T05:14:52.662Z,46.18
2019-03-12T05:20:46.563Z,47.46
2019-03-12T05:23:17.506Z,47.56
2019-03-12T05:25:48.449Z,47.69
2019-03-12T05:28:19.280Z,47.81
2019-03-12T05:31:09.161Z,47.97
2019-03-12T05:33:40.159Z,48.11
2019-03-12T05:36:23.090Z,47.08
2019-03-12T05:38:43.714Z,46.55
2019-03-12T05:41:15.410Z,46.85
2019-03-12T05:43:47.099Z,47.35
2019-03-12T05:46:17.727Z,47.72
2019-03-12T05:51:58.462Z,46.68
2019-03-12T05:54:48.047Z,46.34
2019-03-12T05:57:19.190Z,46.08
2019-03-12T05:59:50.989Z,45.89
2019-03-12T06:02:40.496Z,46.80
2019-03-12T06:05:32.860Z,46.80
2019-03-12T06:08:03.607Z,47.57
2019-03-12T06:10:53.879Z,47.85
2019-03-12T06:13:27.097Z,48.02
2019-03-12T06:15:57.844Z,47.62
2019-03-12T06:21:58.676Z,47.51
2019-03-12T06:24:29.277Z,47.01
2019-03-12T06:26:59.976Z,46.74
2019-03-12T06:29:30.670Z,46.61
2019-03-12T06:32:40.823Z,46.70
2019-03-12T06:38:10.997Z,46.71
2019-03-12T06:41:17.374Z,47.05
2019-03-12T06:44:05.803Z,47.27
2019-03-12T06:46:55.560Z,47.12
2019-03-12T06:49:43.670Z,47.25
2019-03-12T06:55:35.165Z,45.70
2019-03-12T06:58:44.954Z,45.04
2019-03-12T07:01:36.220Z,44.17
2019-03-12T07:04:47.238Z,43.59
2019-03-12T07:07:49.286Z,43.50
2019-03-12T07:14:17.246Z,43.33
2019-03-12T07:17:07.900Z,43.79
2019-03-12T07:19:47.200Z,42.77
2019-03-12T07:22:40.025Z,42.65
2019-03-12T07:25:27.179Z,42.31
2019-03-12T07:28:17.573Z,40.97
2019-03-12T07:31:07.039Z,40.79
2019-03-12T07:34:04.117Z,40.79
2019-03-12T07:36:44.057Z,41.36
2019-03-12T07:39:25.559Z,40.44
2019-03-12T07:42:17.123Z,40.27
2019-03-12T07:45:44.845Z,39.70
2019-03-12T07:48:33.512Z,40.77
2019-03-12T07:51:25.439Z,40.20
2019-03-12T07:54:15.002Z,39.97
2019-03-12T07:57:38.004Z,39.36
2019-03-12T08:03:46.819Z,40.49
2019-03-12T08:06:37.275Z,40.99
2019-03-12T08:09:48.774Z,40.69
2019-03-12T08:12:50.261Z,40.55
2019-03-12T08:15:59.792Z,40.94
2019-03-12T08:18:49.346Z,40.48
2019-03-12T08:21:57.085Z,41.28
2019-03-12T08:28:02.064Z,40.73
2019-03-12T08:31:12.452Z,40.13
2019-03-12T08:34:15.058Z,39.05
2019-03-12T08:37:04.734Z,39.66
2019-03-12T08:40:28.194Z,38.61
2019-03-12T08:43:25.246Z,38.61
2019-03-12T08:46:34.674Z,39.03
2019-03-12T08:49:14.944Z,39.04
2019-03-12T08:52:08.213Z,39.24
2019-03-12T08:55:16.606Z,38.54
2019-03-12T08:57:54.030Z,37.92
2019-03-12T09:01:25.339Z,37.11
2019-03-12T09:04:14.056Z,37.04
2019-03-12T09:07:05.193Z,37.04
2019-03-12T09:10:14.464Z,35.82
2019-03-12T09:13:04.356Z,35.94
2019-03-12T09:16:13.117Z,35.04
2019-03-12T09:19:02.759Z,35.04
2019-03-12T09:22:11.311Z,35.93
2019-03-12T09:24:53.494Z,35.56
2019-03-12T09:30:33.924Z,34.27
2019-03-12T09:33:23.519Z,33.94
2019-03-12T09:36:13.956Z,33.51
2019-03-12T09:39:22.697Z,32.71
2019-03-12T09:45:33.283Z,33.40
2019-03-12T09:51:43.301Z,33.88
2019-03-12T09:54:32.951Z,33.25
2019-03-12T09:57:41.797Z,32.36
2019-03-12T10:00:39.870Z,32.17
2019-03-12T10:06:39.238Z,31.65
2019-03-12T10:09:43.235Z,30.81
2019-03-12T10:15:34.977Z,31.04
2019-03-12T10:18:25.723Z,31.54
2019-03-12T10:23:50.328Z,31.73
2019-03-12T10:26:53.506Z,31.40
2019-03-12T10:29:32.356Z,31.74
2019-03-12T10:32:42.225Z,31.41
2019-03-12T10:39:19.486Z,31.65
2019-03-12T10:45:40.095Z,31.50
2019-03-12T10:48:12.377Z,31.19
2019-03-12T10:53:44.504Z,30.72
2019-03-12T11:02:40.841Z,30.23
2019-03-12T11:08:15.333Z,29.85
2019-03-12T11:10:46.299Z,29.88
2019-03-12T11:13:17.503Z,30.31
2019-03-12T11:15:48.324Z,30.69
2019-03-12T11:18:20.320Z,29.55
2019-03-12T11:21:30.327Z,29.20
2019-03-12T11:24:35.200Z,28.99
2019-03-12T11:32:53.535Z,28.11
2019-03-12T11:35:25.362Z,28.51
2019-03-12T11:40:50.627Z,28.60
2019-03-12T11:43:42.563Z,27.92
2019-03-12T11:46:25.898Z,27.27
2019-03-12T11:49:29.623Z,27.28
2019-03-12T11:52:08.685Z,27.65
2019-03-12T11:55:25.586Z,27.66
2019-03-12T11:58:44.003Z,28.05
2019-03-12T12:01:45.116Z,28.43
2019-03-12T12:04:35.228Z,28.23
2019-03-12T12:10:17.369Z,29.38
2019-03-12T12:13:30.869Z,29.65
2019-03-12T12:16:45.217Z,29.42
2019-03-12T12:34:08.292Z,30.34
2019-03-12T12:37:18.760Z,30.21
2019-03-12T12:39:51.604Z,30.26
2019-03-12T12:46:09.755Z,29.98
2019-03-12T12:51:40.133Z,30.02
2019-03-12T12:54:13.766Z,29.54
2019-03-12T12:56:58.116Z,29.52
2019-03-12T12:59:39.707Z,29.64
2019-03-12T13:02:57.344Z,29.32
2019-03-12T13:09:05.147Z,29.07
2019-03-12T13:11:58.935Z,29.21
2019-03-12T13:17:49.245Z,28.08
2019-03-12T13:20:36.059Z,28.00
2019-03-12T13:33:36.018Z,28.31
2019-03-12T13:39:56.892Z,28.10
2019-03-12T13:49:10.377Z,27.72
2019-03-12T13:52:31.422Z,27.78
2019-03-12T13:54:41.876Z,28.32
2019-03-12T13:57:31.556Z,28.47
2019-03-12T14:03:34.359Z,27.77
2019-03-12T14:09:20.369Z,27.47
2019-03-12T14:12:22.228Z,27.13
2019-03-12T14:21:55.584Z,27.60
2019-03-12T14:24:39.111Z,26.56
2019-03-12T14:27:18.544Z,26.55
2019-03-12T14:29:50.119Z,26.24
2019-03-12T14:38:46.803Z,25.30
2019-03-12T14:41:17.557Z,25.45
2019-03-12T14:43:48.614Z,25.81
2019-03-12T14:46:38.275Z,25.75
2019-03-12T14:49:28.092Z,25.83
2019-03-12T14:52:37.177Z,25.72
2019-03-12T14:55:49.430Z,25.36
2019-03-12T14:58:18.573Z,25.58
2019-03-12T15:03:59.042Z,25.51
2019-03-12T15:06:31.034Z,25.86
2019-03-12T15:09:07.669Z,26.43
2019-03-12T15:15:00.363Z,26.59
2019-03-12T15:21:01.264Z,26.13
2019-03-12T15:23:59.699Z,25.17
2019-03-12T15:35:42.571Z,23.79
2019-03-12T15:38:32.107Z,23.70
2019-03-12T15:41:26.298Z,24.10
2019-03-12T15:44:34.884Z,24.11
2019-03-12T15:47:27.162Z,24.06
2019-03-12T15:49:59.120Z,24.87
2019-03-12T15:52:30.750Z,24.61
2019-03-12T15:55:40.812Z,25.22
2019-03-12T15:58:11.614Z,25.30
2019-03-12T16:01:05.425Z,25.33
2019-03-12T16:07:24.325Z,24.98
2019-03-12T16:10:19.490Z,24.96
2019-03-12T16:12:48.227Z,25.56
2019-03-12T16:16:24.606Z,25.76
2019-03-12T16:22:18.691Z,25.84
2019-03-12T16:25:10.724Z,26.00
2019-03-12T16:37:36.229Z,25.41
2019-03-12T16:40:28.626Z,25.40
2019-03-12T16:49:30.408Z,25.61
2019-03-12T16:52:01.520Z,25.52
2019-03-12T16:54:32.311Z,25.41
2019-03-12T16:57:22.766Z,25.22
2019-03-12T17:00:14.365Z,25.37
2019-03-12T17:03:04.002Z,25.09
2019-03-12T17:05:54.769Z,25.16
2019-03-12T17:08:44.385Z,24.99
2019-03-12T17:11:34.560Z,24.96
2019-03-12T17:14:18.283Z,24.69
2019-03-12T17:16:57.799Z,24.46
2019-03-12T17:22:40.519Z,24.46
2019-03-12T17:25:51.566Z,24.49
2019-03-12T17:28:42.427Z,24.70
2019-03-12T17:31:47.225Z,24.66
2019-03-12T17:34:46.711Z,24.77
2019-03-12T17:37:34.030Z,24.48
2019-03-12T17:40:31.975Z,24.24
2019-03-12T17:49:55.503Z,23.99
2019-03-12T17:52:45.485Z,23.68
2019-03-12T17:58:26.824Z,23.77
2019-03-12T18:01:11.926Z,23.85
2019-03-12T18:04:12.089Z,23.46
2019-03-12T18:06:57.987Z,23.28
2019-03-12T18:26:59.198Z,23.15
2019-03-12T18:29:59.401Z,23.31
2019-03-12T18:33:16.612Z,23.28
2019-03-12T18:43:24.513Z,22.76
2019-03-12T19:02:18.384Z,22.42
2019-03-12T19:05:28.069Z,22.42
2019-03-12T19:34:28.379Z,22.96
2019-03-12T19:40:23.676Z,23.46
2019-03-12T19:46:45.552Z,23.44
2019-03-12T19:50:18.691Z,23.44
2019-03-12T19:56:43.964Z,23.31
2019-03-12T19:59:22.949Z,23.31
2019-03-12T20:02:37.104Z,23.46
2019-03-12T20:09:08.219Z,23.24
2019-03-12T20:15:36.849Z,23.70
2019-03-12T20:18:55.338Z,23.91
2019-03-12T20:29:08.927Z,24.68
2019-03-12T20:39:41.865Z,25.26
2019-03-12T20:43:15.576Z,25.26
2019-03-12T20:46:29.187Z,25.67
2019-03-12T20:50:22.165Z,25.82
2019-03-12T21:07:28.762Z,26.07
2019-03-12T21:14:20.277Z,26.15
2019-03-12T21:17:49.021Z,26.31
2019-03-12T21:33:56.570Z,27.03
2019-03-12T21:36:47.548Z,27.45
2019-03-12T21:40:29.349Z,27.74
2019-03-12T21:49:02.672Z,27.59
2019-03-12T21:52:14.912Z,28.13
2019-03-12T21:54:50.545Z,28.36
2019-03-12T22:03:34.355Z,29.32
2019-03-12T22:06:44.194Z,30.09
2019-03-12T22:09:49.073Z,30.54
2019-03-12T22:12:11.059Z,30.67
2019-03-12T22:14:42.972Z,30.30
2019-03-12T22:17:15.099Z,30.04
2019-03-12T22:19:57.733Z,30.29
2019-03-12T22:22:37.973Z,29.63
2019-03-12T22:25:29.447Z,29.51
2019-03-12T22:28:01.276Z,29.63
2019-03-12T22:30:33.361Z,29.41
2019-03-12T22:39:00.400Z,29.60
2019-03-12T22:44:54.058Z,30.51
2019-03-12T22:47:44.902Z,30.51
2019-03-12T22:50:18.462Z,30.16
2019-03-12T22:56:57.004Z,30.40
2019-03-12T22:59:47.184Z,30.53
2019-03-12T23:05:41.292Z,31.21
2019-03-12T23:11:12.420Z,32.68
2019-03-12T23:14:03.209Z,33.38
2019-03-12T23:20:20.590Z,35.60
2019-03-12T23:23:10.702Z,36.66
2019-03-12T23:31:55.198Z,38.09
2019-03-12T23:35:04.122Z,39.36
2019-03-12T23:37:35.901Z,40.39
2019-03-12T23:42:51.440Z,41.46
2019-03-12T23:45:57.235Z,42.70
2019-03-12T23:48:16.700Z,43.82
2019-03-12T23:50:48.376Z,44.92
2019-03-12T23:53:39.443Z,44.72
2019-03-12T23:56:11.372Z,44.91
2019-03-12T23:58:42.977Z,45.33
